Time;durP1;ratioP1;P1;durP2;ratioP2;P2;SDS_P1;SDS_P2;PMS_P1;PMS_P2;Temp;Humidity;BMP_temperature;BMP_pressure;BME280_temperature;BME280_humidity;BME280_pressure;Samples;Min_cycle;Max_cycle;Signal;HPM_P1;HPM_P2
2021/05/23 00:00:16;;;;;;;4.08;1.34;;;;;;;;;;347850;28;1029;-66
2021/05/23 00:00:30;;;;;;;3.88;1.30;;;;;;;;;;345571;28;62236;-68
2021/05/23 00:00:42;;;;;;;4.82;1.42;;;;;;;;;;347366;28;17040;-67
2021/05/23 00:00:54;;;;;;;5.25;1.70;;;;;;;;;;347752;28;1164;-70
2021/05/23 00:01:07;;;;;;;5.10;1.88;;;;;;;;;;347536;28;1256;-67
2021/05/23 00:01:19;;;;;;;5.15;2.10;;;;;;;;;;347665;28;1138;-67
2021/05/23 00:01:31;;;;;;;3.92;1.90;;;;;;;;;;347582;28;1196;-71
2021/05/23 00:01:43;;;;;;;3.50;1.60;;;;;;;;;;347745;28;1363;-67
2021/05/23 00:01:58;;;;;;;2.95;1.30;;;;;;;;;;347721;28;1157;-66
2021/05/23 00:02:12;;;;;;;3.83;1.38;;;;;;;;;;345785;28;61919;-71
2021/05/23 00:02:24;;;;;;;4.50;1.50;;;;;;;;;;346259;28;1312;-68
2021/05/23 00:02:37;;;;;;;4.13;1.55;;;;;;;;;;346452;28;1161;-67
2021/05/23 00:02:50;;;;;;;4.22;1.30;;;;;;;;;;347744;28;1160;-67
2021/05/23 00:03:04;;;;;;;4.40;1.15;;;;;;;;;;347886;28;1066;-67
2021/05/23 00:03:16;;;;;;;4.38;1.33;;;;;;;;;;347283;28;16709;-68
2021/05/23 00:03:29;;;;;;;4.88;1.48;;;;;;;;;;347846;28;1081;-71
2021/05/23 00:03:41;;;;;;;5.18;1.52;;;;;;;;;;348011;28;1062;-66
2021/05/23 00:03:53;;;;;;;4.88;1.70;;;;;;;;;;347629;28;1204;-66
2021/05/23 00:04:05;;;;;;;5.10;1.63;;;;;;;;;;347853;28;986;-66
2021/05/23 00:04:17;;;;;;;3.30;1.10;;;;;;;;;;347909;28;1152;-68
2021/05/23 00:04:30;;;;;;;2.65;1.33;;;;;;;;;;348094;28;1181;-70
2021/05/23 00:04:42;;;;;;;4.00;1.65;;;;;;;;;;347857;28;1018;-66
2021/05/23 00:04:54;;;;;;;4.82;1.80;;;;;;;;;;346604;28;1050;-66
2021/05/23 00:05:08;;;;;;;6.85;2.33;;;;;;;;;;346515;28;1102;-71
2021/05/23 00:05:22;;;;;;;5.10;2.20;;;;;;;;;;345950;28;18183;-67
2021/05/23 00:05:39;;;;;;;3.83;1.13;;;;;;;;;;346854;28;16228;-71
2021/05/23 00:05:51;;;;;;;4.47;1.23;;;;;;;;;;345638;28;64093;-66
2021/05/23 00:06:03;;;;;;;3.42;1.20;;;;;;;;;;347909;28;1176;-71
2021/05/23 00:06:16;;;;;;;4.05;1.30;;;;;;;;;;347818;28;1489;-67
2021/05/23 00:06:28;;;;;;;3.30;1.05;;;;;;;;;;347245;28;1238;-67
2021/05/23 00:06:41;;;;;;;4.90;1.35;;;;;;;;;;346309;28;1173;-66
2021/05/23 00:06:53;;;;;;;6.30;2.05;;;;;;;;;;346451;28;1094;-67
2021/05/23 00:07:07;;;;;;;5.15;2.72;;;;;;;;;;345281;28;1098;-66
2021/05/23 00:07:25;;;;;;;4.75;2.40;;;;;;;;;;346148;28;16810;-68
2021/05/23 00:07:38;;;;;;;4.40;1.92;;;;;;;;;;345457;28;63623;-70
2021/05/23 00:07:55;;;;;;;4.50;2.13;;;;;;;;;;347779;28;1106;-70
2021/05/23 00:08:11;;;;;;;3.10;1.77;;;;;;;;;;344299;28;63519;-68
2021/05/23 00:08:25;;;;;;;2.38;1.27;;;;;;;;;;344013;28;63761;-66
2021/05/23 00:08:37;;;;;;;2.75;1.20;;;;;;;;;;346197;28;1118;-67
2021/05/23 00:08:51;;;;;;;3.47;1.30;;;;;;;;;;346343;28;1165;-68
2021/05/23 00:09:04;;;;;;;3.88;1.30;;;;;;;;;;345321;28;40936;-70
2021/05/23 00:09:16;;;;;;;3.63;1.48;;;;;;;;;;347627;28;1098;-66
2021/05/23 00:09:29;;;;;;;3.00;1.52;;;;;;;;;;347821;28;1161;-70
2021/05/23 00:09:41;;;;;;;3.15;1.50;;;;;;;;;;347644;28;1068;-66
2021/05/23 00:09:54;;;;;;;2.97;1.50;;;;;;;;;;347678;28;1142;-70
2021/05/23 00:10:07;;;;;;;3.02;1.56;;;;;;;;;;347838;28;1094;-72
2021/05/23 00:10:20;;;;;;;3.50;1.50;;;;;;;;;;347756;28;1375;-66
2021/05/23 00:10:44;;;;;;;5.52;2.10;;;;;;;;;;347557;28;1348;-67
2021/05/23 00:11:00;;;;;;;5.28;1.92;;;;;;;;;;345471;28;63535;-66
2021/05/23 00:11:13;;;;;;;3.90;1.52;;;;;;;;;;345898;28;62577;-66
2021/05/23 00:11:25;;;;;;;4.13;1.70;;;;;;;;;;347995;28;1272;-66
2021/05/23 00:11:37;;;;;;;3.64;1.72;;;;;;;;;;347960;28;1346;-67
2021/05/23 00:11:49;;;;;;;4.05;1.40;;;;;;;;;;347978;28;1164;-66
2021/05/23 00:12:02;;;;;;;5.78;1.88;;;;;;;;;;347935;28;1119;-70
2021/05/23 00:12:16;;;;;;;5.82;2.25;;;;;;;;;;347963;28;1094;-66
2021/05/23 00:12:28;;;;;;;4.18;1.80;;;;;;;;;;347243;28;17032;-67
2021/05/23 00:12:41;;;;;;;3.90;1.77;;;;;;;;;;348053;28;1097;-66
2021/05/23 00:12:54;;;;;;;3.72;1.90;;;;;;;;;;347550;28;1936;-66
2021/05/23 00:13:07;;;;;;;3.22;1.70;;;;;;;;;;347725;28;1191;-68
2021/05/23 00:13:20;;;;;;;4.55;2.42;;;;;;;;;;347606;28;1086;-68
2021/05/23 00:13:43;;;;;;;4.55;2.42;;;;;;;;;;347275;28;17090;-71
2021/05/23 00:13:55;;;;;;;3.50;1.73;;;;;;;;;;345534;28;62896;-69
2021/05/23 00:14:07;;;;;;;5.22;2.13;;;;;;;;;;347599;28;1184;-70
2021/05/23 00:14:20;;;;;;;5.60;2.08;;;;;;;;;;347796;28;1146;-67
2021/05/23 00:14:32;;;;;;;5.32;1.98;;;;;;;;;;347810;28;1185;-66
2021/05/23 00:14:44;;;;;;;3.83;1.70;;;;;;;;;;347920;28;1191;-66
2021/05/23 00:14:57;;;;;;;4.28;1.55;;;;;;;;;;348033;28;1160;-67
2021/05/23 00:15:10;;;;;;;4.20;1.40;;;;;;;;;;348016;28;1132;-67
2021/05/23 00:15:25;;;;;;;4.13;1.40;;;;;;;;;;347422;28;16630;-66
2021/05/23 00:15:56;;;;;;;5.93;1.92;;;;;;;;;;347543;28;16702;-67
2021/05/23 00:16:12;;;;;;;6.25;2.33;;;;;;;;;;345947;28;62204;-68
2021/05/23 00:16:26;;;;;;;4.95;1.80;;;;;;;;;;346983;28;63986;-68
2021/05/23 00:16:38;;;;;;;4.55;2.13;;;;;;;;;;348627;28;17071;-68
2021/05/23 00:16:50;;;;;;;4.72;2.50;;;;;;;;;;348969;28;1201;-68
2021/05/23 00:17:02;;;;;;;5.10;3.03;;;;;;;;;;349237;28;1090;-67
2021/05/23 00:17:14;;;;;;;6.80;3.63;;;;;;;;;;348986;28;1918;-67
2021/05/23 00:17:27;;;;;;;7.63;3.83;;;;;;;;;;349141;28;1234;-67
2021/05/23 00:17:39;;;;;;;6.47;3.13;;;;;;;;;;348912;28;969;-67
2021/05/23 00:17:52;;;;;;;4.93;2.38;;;;;;;;;;348761;28;1696;-67
2021/05/23 00:18:06;;;;;;;3.90;1.35;;;;;;;;;;348517;28;1715;-71
2021/05/23 00:18:18;;;;;;;3.88;1.27;;;;;;;;;;348591;28;16524;-65
2021/05/23 00:18:32;;;;;;;3.00;1.20;;;;;;;;;;348951;28;1597;-65
2021/05/23 00:18:46;;;;;;;3.58;1.30;;;;;;;;;;348537;28;15835;-66
2021/05/23 00:18:58;;;;;;;4.45;1.50;;;;;;;;;;348274;28;17063;-65
2021/05/23 00:19:11;;;;;;;3.78;1.23;;;;;;;;;;347855;28;1050;-65
2021/05/23 00:19:23;;;;;;;4.25;1.20;;;;;;;;;;347891;28;1246;-70
2021/05/23 00:19:35;;;;;;;4.60;1.27;;;;;;;;;;349006;28;1458;-66
2021/05/23 00:19:47;;;;;;;4.70;1.30;;;;;;;;;;349127;28;1355;-65
2021/05/23 00:20:00;;;;;;;3.70;1.10;;;;;;;;;;348990;28;1241;-65
2021/05/23 00:20:12;;;;;;;2.50;0.93;;;;;;;;;;348923;28;1091;-65
2021/05/23 00:20:27;;;;;;;2.85;0.90;;;;;;;;;;347801;28;39677;-65
2021/05/23 00:20:40;;;;;;;4.13;0.90;;;;;;;;;;348918;28;1135;-65
2021/05/23 00:20:52;;;;;;;4.40;1.00;;;;;;;;;;348902;28;1094;-65
2021/05/23 00:21:05;;;;;;;3.92;1.10;;;;;;;;;;347755;28;1096;-65
2021/05/23 00:21:18;;;;;;;3.13;1.13;;;;;;;;;;347617;28;1070;-65
2021/05/23 00:21:30;;;;;;;3.20;1.20;;;;;;;;;;347692;28;1147;-65
2021/05/23 00:21:43;;;;;;;3.55;1.10;;;;;;;;;;347622;28;1522;-65
2021/05/23 00:21:55;;;;;;;3.97;1.17;;;;;;;;;;347658;28;1189;-65
2021/05/23 00:22:07;;;;;;;4.07;1.35;;;;;;;;;;349260;28;1108;-65
2021/05/23 00:22:19;;;;;;;3.20;1.30;;;;;;;;;;349036;28;1365;-66
2021/05/23 00:22:31;;;;;;;3.33;1.20;;;;;;;;;;347896;28;1636;-66
2021/05/23 00:22:47;;;;;;;4.68;1.42;;;;;;;;;;348027;28;39756;-65
2021/05/23 00:22:59;;;;;;;4.47;1.33;;;;;;;;;;348976;28;1161;-66
2021/05/23 00:23:11;;;;;;;3.72;1.33;;;;;;;;;;348993;28;1189;-65
2021/05/23 00:23:23;;;;;;;3.65;1.25;;;;;;;;;;348900;28;1307;-66
2021/05/23 00:23:36;;;;;;;4.22;1.33;;;;;;;;;;349157;28;1203;-67
2021/05/23 00:23:48;;;;;;;4.05;1.30;;;;;;;;;;347624;28;1128;-68
2021/05/23 00:24:01;;;;;;;3.30;1.10;;;;;;;;;;347765;28;1275;-68
2021/05/23 00:24:13;;;;;;;3.50;1.00;;;;;;;;;;347684;28;1276;-69
2021/05/23 00:24:26;;;;;;;4.15;0.90;;;;;;;;;;348046;28;1050;-65
2021/05/23 00:24:38;;;;;;;2.80;0.77;;;;;;;;;;347766;28;1018;-72
2021/05/23 00:24:50;;;;;;;2.38;0.80;;;;;;;;;;347691;28;1110;-66
2021/05/23 00:25:04;;;;;;;2.28;0.93;;;;;;;;;;348920;28;1315;-69
2021/05/23 00:25:18;;;;;;;3.30;1.20;;;;;;;;;;349132;28;1120;-66
2021/05/23 00:25:30;;;;;;;4.28;1.45;;;;;;;;;;348730;28;16924;-71
2021/05/23 00:25:43;;;;;;;4.18;1.38;;;;;;;;;;349115;28;1150;-68
2021/05/23 00:25:55;;;;;;;4.38;1.20;;;;;;;;;;347866;28;1080;-67
2021/05/23 00:26:07;;;;;;;4.75;1.20;;;;;;;;;;347749;28;1114;-70
2021/05/23 00:26:19;;;;;;;5.25;1.33;;;;;;;;;;347656;28;1061;-67
2021/05/23 00:26:35;;;;;;;4.40;1.33;;;;;;;;;;347688;28;1139;-70
2021/05/23 00:26:47;;;;;;;6.53;1.48;;;;;;;;;;345686;28;62923;-68
2021/05/23 00:26:59;;;;;;;5.82;1.33;;;;;;;;;;347713;28;1310;-67
2021/05/23 00:27:11;;;;;;;4.90;1.30;;;;;;;;;;347700;28;1094;-68
2021/05/23 00:27:24;;;;;;;4.03;1.20;;;;;;;;;;346307;28;1700;-66
2021/05/23 00:27:36;;;;;;;3.50;1.15;;;;;;;;;;346447;28;1371;-70
2021/05/23 00:27:49;;;;;;;3.42;1.20;;;;;;;;;;346548;28;1148;-66
2021/05/23 00:28:01;;;;;;;3.45;1.20;;;;;;;;;;347596;28;1051;-70
2021/05/23 00:28:14;;;;;;;4.20;1.13;;;;;;;;;;347568;28;1103;-66
2021/05/23 00:28:26;;;;;;;3.88;1.00;;;;;;;;;;347396;28;1700;-69
2021/05/23 00:28:39;;;;;;;2.90;0.85;;;;;;;;;;345130;28;1658;-66
2021/05/23 00:28:52;;;;;;;1.80;0.80;;;;;;;;;;347327;28;1021;-68
2021/05/23 00:29:14;;;;;;;2.80;0.90;;;;;;;;;;345407;28;62474;-67
2021/05/23 00:29:26;;;;;;;3.30;0.82;;;;;;;;;;348417;28;1120;-65
2021/05/23 00:29:38;;;;;;;4.45;1.00;;;;;;;;;;348984;28;998;-70
2021/05/23 00:29:50;;;;;;;4.70;1.00;;;;;;;;;;347689;28;1064;-66
2021/05/23 00:30:03;;;;;;;4.65;1.10;;;;;;;;;;347796;28;1086;-67
2021/05/23 00:30:16;;;;;;;5.15;1.30;;;;;;;;;;347686;28;1177;-67
2021/05/23 00:30:29;;;;;;;5.88;1.38;;;;;;;;;;347321;28;16625;-67
2021/05/23 00:30:43;;;;;;;4.38;1.25;;;;;;;;;;347627;28;1251;-68
2021/05/23 00:30:55;;;;;;;4.45;1.25;;;;;;;;;;346359;28;39697;-69
2021/05/23 00:31:08;;;;;;;5.00;1.20;;;;;;;;;;347706;28;1086;-67
2021/05/23 00:31:20;;;;;;;4.32;1.06;;;;;;;;;;347729;28;1176;-67
2021/05/23 00:31:33;;;;;;;4.47;1.02;;;;;;;;;;347731;28;1191;-69
2021/05/23 00:31:45;;;;;;;4.88;1.20;;;;;;;;;;347535;28;1094;-66
2021/05/23 00:31:59;;;;;;;3.95;1.20;;;;;;;;;;347955;28;1105;-68
2021/05/23 00:32:11;;;;;;;3.25;1.20;;;;;;;;;;347730;28;1086;-67
2021/05/23 00:32:23;;;;;;;4.24;1.30;;;;;;;;;;347760;28;1168;-67
2021/05/23 00:32:35;;;;;;;3.85;1.20;;;;;;;;;;347654;28;1083;-67
2021/05/23 00:32:50;;;;;;;3.33;1.13;;;;;;;;;;346442;28;40882;-69
2021/05/23 00:33:04;;;;;;;3.22;1.00;;;;;;;;;;347549;28;1106;-69
2021/05/23 00:33:17;;;;;;;3.03;0.93;;;;;;;;;;347211;28;17134;-68
2021/05/23 00:33:30;;;;;;;3.88;1.17;;;;;;;;;;347643;28;1928;-67
2021/05/23 00:33:42;;;;;;;3.90;1.17;;;;;;;;;;346316;28;1093;-67
2021/05/23 00:33:54;;;;;;;4.90;1.10;;;;;;;;;;346517;28;1516;-68
2021/05/23 00:34:06;;;;;;;6.60;1.25;;;;;;;;;;347804;28;1168;-66
2021/05/23 00:34:19;;;;;;;6.75;1.40;;;;;;;;;;347706;28;1595;-71
2021/05/23 00:34:32;;;;;;;5.28;1.30;;;;;;;;;;347550;28;1141;-67
2021/05/23 00:34:44;;;;;;;4.43;1.20;;;;;;;;;;347775;28;1086;-67
2021/05/23 00:34:59;;;;;;;4.60;1.30;;;;;;;;;;346405;28;41248;-68
2021/05/23 00:35:14;;;;;;;6.43;1.38;;;;;;;;;;346346;28;40173;-67
2021/05/23 00:35:26;;;;;;;6.00;1.20;;;;;;;;;;347803;28;1110;-67
2021/05/23 00:35:38;;;;;;;3.85;1.10;;;;;;;;;;347705;28;1050;-71
2021/05/23 00:35:50;;;;;;;3.53;1.10;;;;;;;;;;347868;28;1180;-67
2021/05/23 00:36:03;;;;;;;4.18;1.20;;;;;;;;;;347660;28;1133;-69
2021/05/23 00:36:15;;;;;;;5.05;1.33;;;;;;;;;;347557;28;1184;-68
2021/05/23 00:36:27;;;;;;;4.93;1.40;;;;;;;;;;347617;28;983;-67
2021/05/23 00:36:40;;;;;;;2.88;1.00;;;;;;;;;;347626;28;1018;-68
2021/05/23 00:36:54;;;;;;;1.63;0.70;;;;;;;;;;347597;28;1319;-69
2021/05/23 00:37:06;;;;;;;2.47;0.88;;;;;;;;;;348063;28;1054;-68
2021/05/23 00:37:18;;;;;;;2.60;0.90;;;;;;;;;;346338;28;1119;-68
2021/05/23 00:37:31;;;;;;;2.78;0.95;;;;;;;;;;346295;28;1225;-67
2021/05/23 00:37:43;;;;;;;3.83;1.05;;;;;;;;;;346506;28;1285;-70
2021/05/23 00:37:56;;;;;;;5.57;1.17;;;;;;;;;;345030;28;1814;-71
2021/05/23 00:38:08;;;;;;;5.90;1.30;;;;;;;;;;344940;28;1589;-70
2021/05/23 00:38:21;;;;;;;5.28;1.25;;;;;;;;;;344968;28;1069;-68
2021/05/23 00:38:33;;;;;;;4.05;1.13;;;;;;;;;;344922;28;1234;-67
2021/05/23 00:38:45;;;;;;;3.58;1.10;;;;;;;;;;344913;28;1993;-67
2021/05/23 00:38:57;;;;;;;4.55;1.30;;;;;;;;;;343781;28;1058;-71
2021/05/23 00:39:09;;;;;;;4.15;1.20;;;;;;;;;;344119;28;1658;-67
2021/05/23 00:39:22;;;;;;;3.50;1.10;;;;;;;;;;345882;28;1665;-70
2021/05/23 00:39:34;;;;;;;3.28;1.05;;;;;;;;;;344940;28;1412;-70
2021/05/23 00:39:47;;;;;;;4.15;1.30;;;;;;;;;;345697;28;1095;-67
2021/05/23 00:40:00;;;;;;;4.13;1.40;;;;;;;;;;345521;28;16610;-68
2021/05/23 00:40:15;;;;;;;3.05;1.20;;;;;;;;;;345389;28;39605;-70
2021/05/23 00:40:27;;;;;;;2.97;1.30;;;;;;;;;;346309;28;1086;-68
2021/05/23 00:40:39;;;;;;;3.97;1.40;;;;;;;;;;346363;28;1304;-67
2021/05/23 00:40:51;;;;;;;3.55;1.25;;;;;;;;;;346388;28;1172;-69
2021/05/23 00:41:04;;;;;;;3.75;1.08;;;;;;;;;;346408;28;1208;-71
2021/05/23 00:41:16;;;;;;;4.47;1.15;;;;;;;;;;346351;28;1180;-70
2021/05/23 00:41:28;;;;;;;5.45;1.40;;;;;;;;;;346307;28;1064;-69
2021/05/23 00:41:40;;;;;;;7.40;1.60;;;;;;;;;;347488;28;1073;-68
2021/05/23 00:41:52;;;;;;;6.65;1.45;;;;;;;;;;347621;28;1090;-67
2021/05/23 00:42:09;;;;;;;5.72;1.40;;;;;;;;;;349044;28;1473;-66
2021/05/23 00:42:21;;;;;;;4.18;1.30;;;;;;;;;;347150;28;62659;-71
2021/05/23 00:42:34;;;;;;;4.00;1.30;;;;;;;;;;347693;28;1074;-69
2021/05/23 00:42:46;;;;;;;3.80;1.25;;;;;;;;;;347583;28;1145;-69
2021/05/23 00:42:59;;;;;;;4.53;1.15;;;;;;;;;;347624;28;1129;-67
2021/05/23 00:43:12;;;;;;;4.35;1.10;;;;;;;;;;346364;28;1995;-69
2021/05/23 00:43:24;;;;;;;3.47;1.23;;;;;;;;;;344876;28;1077;-67
2021/05/23 00:43:40;;;;;;;5.40;1.40;;;;;;;;;;343219;28;62583;-68
2021/05/23 00:43:52;;;;;;;6.22;1.30;;;;;;;;;;344713;28;1045;-67
2021/05/23 00:44:04;;;;;;;5.78;1.30;;;;;;;;;;345093;28;1090;-70
2021/05/23 00:44:16;;;;;;;4.13;1.30;;;;;;;;;;345109;28;1230;-68
2021/05/23 00:44:29;;;;;;;2.50;1.20;;;;;;;;;;345169;28;1098;-68
2021/05/23 00:44:41;;;;;;;2.80;1.20;;;;;;;;;;346303;28;1103;-70
2021/05/23 00:44:53;;;;;;;3.05;1.30;;;;;;;;;;346346;28;1139;-71
2021/05/23 00:45:09;;;;;;;3.03;1.10;;;;;;;;;;345739;28;17123;-70
2021/05/23 00:45:21;;;;;;;2.22;0.90;;;;;;;;;;347342;28;17108;-67
2021/05/23 00:45:34;;;;;;;3.47;1.00;;;;;;;;;;349123;28;1098;-67
2021/05/23 00:45:49;;;;;;;4.00;1.27;;;;;;;;;;348880;28;1113;-70
2021/05/23 00:46:01;;;;;;;4.22;1.25;;;;;;;;;;347602;28;40844;-72
2021/05/23 00:46:13;;;;;;;4.28;1.30;;;;;;;;;;349176;28;1109;-67
2021/05/23 00:46:25;;;;;;;5.20;1.40;;;;;;;;;;349174;28;1090;-72
2021/05/23 00:46:38;;;;;;;5.80;1.58;;;;;;;;;;349053;28;1050;-67
2021/05/23 00:46:50;;;;;;;5.78;1.35;;;;;;;;;;349095;28;1360;-67
2021/05/23 00:47:02;;;;;;;5.30;1.27;;;;;;;;;;349241;28;1152;-67
2021/05/23 00:47:14;;;;;;;4.85;1.20;;;;;;;;;;349076;28;1233;-67
2021/05/23 00:47:26;;;;;;;4.95;1.10;;;;;;;;;;349000;28;1117;-67
2021/05/23 00:47:38;;;;;;;4.15;1.10;;;;;;;;;;347717;28;1070;-67
2021/05/23 00:47:51;;;;;;;5.97;1.30;;;;;;;;;;347781;28;1101;-67
2021/05/23 00:48:04;;;;;;;6.13;1.20;;;;;;;;;;347098;28;1490;-67
2021/05/23 00:48:21;;;;;;;5.15;1.30;;;;;;;;;;345924;28;63766;-70
2021/05/23 00:48:33;;;;;;;5.47;1.55;;;;;;;;;;345702;28;17077;-67
2021/05/23 00:48:45;;;;;;;4.88;1.38;;;;;;;;;;346486;28;1118;-66
2021/05/23 00:48:57;;;;;;;3.53;1.20;;;;;;;;;;346405;28;1155;-70
2021/05/23 00:49:09;;;;;;;3.28;1.13;;;;;;;;;;346507;28;1142;-67
2021/05/23 00:49:21;;;;;;;4.32;1.30;;;;;;;;;;346318;28;1177;-68
2021/05/23 00:49:37;;;;;;;4.35;1.35;;;;;;;;;;346323;28;1324;-67
2021/05/23 00:49:49;;;;;;;5.90;1.40;;;;;;;;;;346668;28;39737;-71
2021/05/23 00:50:01;;;;;;;6.05;1.50;;;;;;;;;;348276;28;1671;-69
2021/05/23 00:50:21;;;;;;;4.95;1.27;;;;;;;;;;347651;28;987;-68
2021/05/23 00:50:33;;;;;;;4.20;1.38;;;;;;;;;;345393;28;63424;-71
2021/05/23 00:50:46;;;;;;;3.92;1.30;;;;;;;;;;349183;28;1129;-68
2021/05/23 00:50:58;;;;;;;3.40;1.20;;;;;;;;;;349110;28;1069;-70
2021/05/23 00:51:10;;;;;;;2.96;1.04;;;;;;;;;;349002;28;1066;-67
2021/05/23 00:51:23;;;;;;;3.28;1.20;;;;;;;;;;349090;28;1270;-67
2021/05/23 00:51:37;;;;;;;3.13;1.25;;;;;;;;;;349281;28;1127;-69
2021/05/23 00:51:51;;;;;;;3.65;1.27;;;;;;;;;;347689;28;40463;-68
2021/05/23 00:52:07;;;;;;;3.72;1.20;;;;;;;;;;348375;28;17218;-67
2021/05/23 00:52:19;;;;;;;3.26;1.10;;;;;;;;;;347710;28;40926;-66
2021/05/23 00:52:31;;;;;;;4.25;1.20;;;;;;;;;;348954;28;1169;-66
2021/05/23 00:52:44;;;;;;;4.32;1.27;;;;;;;;;;348934;28;1169;-66
2021/05/23 00:53:04;;;;;;;3.92;1.35;;;;;;;;;;345650;28;61734;-66
2021/05/23 00:53:16;;;;;;;3.42;1.33;;;;;;;;;;346912;28;16592;-67
2021/05/23 00:53:30;;;;;;;3.50;1.20;;;;;;;;;;347525;28;16689;-69
2021/05/23 00:53:43;;;;;;;3.63;1.20;;;;;;;;;;347738;28;1439;-66
2021/05/23 00:53:55;;;;;;;3.80;1.20;;;;;;;;;;346330;28;1087;-66
2021/05/23 00:54:08;;;;;;;3.72;1.20;;;;;;;;;;346313;28;1394;-71
2021/05/23 00:54:20;;;;;;;4.05;1.30;;;;;;;;;;346281;28;1037;-67
2021/05/23 00:54:33;;;;;;;5.93;1.40;;;;;;;;;;346298;28;1046;-67
2021/05/23 00:54:45;;;;;;;6.28;1.38;;;;;;;;;;346626;28;1215;-67
2021/05/23 00:54:59;;;;;;;5.15;1.33;;;;;;;;;;346720;28;16872;-70
2021/05/23 00:55:12;;;;;;;3.70;1.33;;;;;;;;;;347490;28;1707;-70
2021/05/23 00:55:24;;;;;;;3.28;1.20;;;;;;;;;;349085;28;1046;-70
2021/05/23 00:55:37;;;;;;;3.22;1.42;;;;;;;;;;347445;28;1114;-69
2021/05/23 00:55:52;;;;;;;4.32;1.38;;;;;;;;;;345882;28;63925;-68
2021/05/23 00:56:04;;;;;;;3.97;1.25;;;;;;;;;;347216;28;1002;-66
2021/05/23 00:56:20;;;;;;;4.10;1.20;;;;;;;;;;346731;28;39676;-68
2021/05/23 00:56:34;;;;;;;5.63;1.40;;;;;;;;;;347609;28;1147;-67
2021/05/23 00:56:46;;;;;;;5.90;1.50;;;;;;;;;;347857;28;39736;-68
2021/05/23 00:56:59;;;;;;;4.78;1.27;;;;;;;;;;348969;28;2000;-68
2021/05/23 00:57:11;;;;;;;3.92;1.15;;;;;;;;;;348914;28;1169;-64
2021/05/23 00:57:24;;;;;;;3.63;1.20;;;;;;;;;;347695;28;1336;-68
2021/05/23 00:57:39;;;;;;;3.75;1.25;;;;;;;;;;346855;28;62787;-67
2021/05/23 00:57:51;;;;;;;3.58;1.20;;;;;;;;;;347945;28;1001;-67
2021/05/23 00:58:04;;;;;;;3.50;1.30;;;;;;;;;;347630;28;1068;-71
2021/05/23 00:58:18;;;;;;;3.90;1.30;;;;;;;;;;348041;28;1041;-66
2021/05/23 00:58:30;;;;;;;4.60;1.30;;;;;;;;;;346971;28;16607;-67
2021/05/23 00:58:44;;;;;;;3.95;1.30;;;;;;;;;;344978;28;1501;-70
2021/05/23 00:58:57;;;;;;;4.15;1.40;;;;;;;;;;343948;28;1663;-66
2021/05/23 00:59:12;;;;;;;5.95;1.40;;;;;;;;;;342445;28;38979;-67
2021/05/23 00:59:26;;;;;;;5.44;1.26;;;;;;;;;;344237;28;16613;-67
2021/05/23 00:59:41;;;;;;;4.05;1.27;;;;;;;;;;346245;28;1270;-66
2021/05/23 00:59:54;;;;;;;5.32;1.40;;;;;;;;;;344989;28;61527;-70
2021/05/23 01:00:07;;;;;;;5.30;1.45;;;;;;;;;;345373;28;1657;-66
2021/05/23 01:00:40;;;;;;;4.32;1.23;;;;;;;;;;345213;28;1923;-65
2021/05/23 01:00:55;;;;;;;5.00;1.45;;;;;;;;;;341314;28;63340;-66
2021/05/23 01:01:25;;;;;;;5.20;1.50;;;;;;;;;;342287;28;39053;-70
2021/05/23 01:01:43;;;;;;;5.15;1.40;;;;;;;;;;341460;28;64430;-68
2021/05/23 01:01:55;;;;;;;4.32;1.38;;;;;;;;;;343473;28;63799;-67
2021/05/23 01:02:07;;;;;;;4.10;1.30;;;;;;;;;;346279;28;1062;-69
2021/05/23 01:02:38;;;;;;;5.07;1.20;;;;;;;;;;346201;28;1229;-68
2021/05/23 01:02:50;;;;;;;4.72;1.30;;;;;;;;;;344263;28;62349;-68
2021/05/23 01:03:25;;;;;;;4.95;1.20;;;;;;;;;;345322;28;39212;-69
2021/05/23 01:03:37;;;;;;;4.63;1.30;;;;;;;;;;343172;28;87525;-66
2021/05/23 01:03:49;;;;;;;4.20;1.27;;;;;;;;;;346125;28;1110;-70
2021/05/23 01:04:01;;;;;;;4.43;1.25;;;;;;;;;;344915;28;1001;-68
2021/05/23 01:04:14;;;;;;;4.53;1.30;;;;;;;;;;346264;28;1124;-70
2021/05/23 01:04:26;;;;;;;4.28;1.30;;;;;;;;;;346119;28;1031;-68
2021/05/23 01:04:41;;;;;;;4.38;1.24;;;;;;;;;;344990;28;1144;-68
2021/05/23 01:04:53;;;;;;;5.60;1.30;;;;;;;;;;343619;28;40361;-69
2021/05/23 01:05:07;;;;;;;5.88;1.40;;;;;;;;;;344928;28;1195;-69
2021/05/23 01:05:20;;;;;;;5.93;1.45;;;;;;;;;;344805;28;1317;-66
2021/05/23 01:05:33;;;;;;;4.38;1.23;;;;;;;;;;344253;28;17113;-68
2021/05/23 01:05:45;;;;;;;4.22;1.20;;;;;;;;;;344798;28;1664;-71
2021/05/23 01:05:58;;;;;;;5.88;1.42;;;;;;;;;;344715;28;1217;-70
2021/05/23 01:06:13;;;;;;;6.85;1.60;;;;;;;;;;343076;28;61780;-69
2021/05/23 01:06:26;;;;;;;5.63;1.35;;;;;;;;;;344926;28;1181;-69
2021/05/23 01:06:38;;;;;;;3.97;1.20;;;;;;;;;;345447;28;1206;-69
2021/05/23 01:06:53;;;;;;;5.60;1.45;;;;;;;;;;343449;28;39796;-71
2021/05/23 01:07:05;;;;;;;6.50;1.40;;;;;;;;;;343556;28;1108;-70
2021/05/23 01:07:17;;;;;;;5.07;1.20;;;;;;;;;;343479;28;952;-70
2021/05/23 01:07:30;;;;;;;4.63;1.10;;;;;;;;;;343367;28;1003;-69
2021/05/23 01:07:43;;;;;;;4.38;1.10;;;;;;;;;;343511;28;1127;-69
2021/05/23 01:07:56;;;;;;;3.45;1.02;;;;;;;;;;342909;28;17811;-70
2021/05/23 01:08:09;;;;;;;3.38;1.13;;;;;;;;;;343335;28;1111;-70
2021/05/23 01:08:22;;;;;;;4.32;1.33;;;;;;;;;;343606;28;1103;-69
2021/05/23 01:08:36;;;;;;;5.45;1.63;;;;;;;;;;343064;28;17805;-69
2021/05/23 01:08:49;;;;;;;5.57;1.48;;;;;;;;;;343127;28;16209;-68
2021/05/23 01:09:02;;;;;;;5.85;1.30;;;;;;;;;;345084;28;1094;-70
2021/05/23 01:09:15;;;;;;;5.98;1.28;;;;;;;;;;345072;28;1701;-67
2021/05/23 01:09:27;;;;;;;5.38;1.38;;;;;;;;;;346194;28;1157;-70
2021/05/23 01:09:39;;;;;;;4.03;1.27;;;;;;;;;;346612;28;1106;-67
2021/05/23 01:09:51;;;;;;;4.35;1.27;;;;;;;;;;346238;28;1090;-69
2021/05/23 01:10:04;;;;;;;3.97;1.38;;;;;;;;;;346060;28;1138;-70
2021/05/23 01:10:49;;;;;;;4.45;1.13;;;;;;;;;;343759;28;62031;-67
2021/05/23 01:11:01;;;;;;;3.83;1.10;;;;;;;;;;344043;28;63594;-70
2021/05/23 01:11:16;;;;;;;4.07;1.10;;;;;;;;;;347458;28;1915;-66
2021/05/23 01:11:28;;;;;;;3.92;1.25;;;;;;;;;;346302;28;39897;-65
2021/05/23 01:11:40;;;;;;;4.57;1.40;;;;;;;;;;347578;28;1202;-69
2021/05/23 01:12:11;;;;;;;5.68;1.50;;;;;;;;;;347519;28;1083;-70
2021/05/23 01:12:26;;;;;;;4.47;1.40;;;;;;;;;;345541;28;63270;-68
2021/05/23 01:12:38;;;;;;;5.25;1.40;;;;;;;;;;345478;28;61895;-69
2021/05/23 01:12:53;;;;;;;6.72;1.48;;;;;;;;;;347592;28;1099;-71
2021/05/23 01:13:24;;;;;;;6.25;1.50;;;;;;;;;;346289;28;39829;-69
2021/05/23 01:13:55;;;;;;;5.60;1.48;;;;;;;;;;345473;28;63680;-68
2021/05/23 01:14:18;;;;;;;4.47;1.30;;;;;;;;;;345704;28;64349;-71
2021/05/23 01:14:50;;;;;;;3.40;1.10;;;;;;;;;;344705;28;64507;-70
2021/05/23 01:15:03;;;;;;;7.70;1.55;;;;;;;;;;344584;28;64070;-70
2021/05/23 01:15:15;;;;;;;6.55;1.40;;;;;;;;;;346511;28;1094;-71
2021/05/23 01:15:29;;;;;;;3.65;1.40;;;;;;;;;;346457;28;1224;-70
2021/05/23 01:15:44;;;;;;;3.38;1.30;;;;;;;;;;345935;28;16684;-68
2021/05/23 01:16:00;;;;;;;5.30;1.27;;;;;;;;;;343969;28;39682;-68
2021/05/23 01:16:18;;;;;;;4.68;1.10;;;;;;;;;;343370;28;62778;-71
2021/05/23 01:16:36;;;;;;;4.05;0.95;;;;;;;;;;343040;28;63684;-68
2021/05/23 01:16:51;;;;;;;3.90;0.90;;;;;;;;;;343119;28;62885;-70
2021/05/23 01:17:03;;;;;;;3.33;0.98;;;;;;;;;;342529;28;40290;-68
2021/05/23 01:17:21;;;;;;;2.05;0.82;;;;;;;;;;342654;28;39962;-68
2021/05/23 01:17:40;;;;;;;2.28;0.88;;;;;;;;;;343189;28;17102;-70
2021/05/23 01:17:53;;;;;;;3.85;1.20;;;;;;;;;;341935;28;62271;-69
2021/05/23 01:18:12;;;;;;;3.90;1.10;;;;;;;;;;345178;28;1211;-68
2021/05/23 01:18:28;;;;;;;4.30;1.13;;;;;;;;;;342156;28;84826;-68
2021/05/23 01:18:46;;;;;;;3.92;1.10;;;;;;;;;;343716;28;41143;-69
2021/05/23 01:19:02;;;;;;;5.28;1.10;;;;;;;;;;343070;28;62433;-70
2021/05/23 01:19:27;;;;;;;5.63;1.15;;;;;;;;;;344323;28;62618;-67
2021/05/23 01:19:45;;;;;;;4.07;1.10;;;;;;;;;;344479;28;61892;-71
2021/05/23 01:20:09;;;;;;;4.18;1.20;;;;;;;;;;343259;28;86815;-68
2021/05/23 01:20:29;;;;;;;4.72;1.20;;;;;;;;;;345562;28;64269;-69
2021/05/23 01:20:49;;;;;;;4.60;1.10;;;;;;;;;;345837;28;62387;-69
2021/05/23 01:21:01;;;;;;;5.60;1.30;;;;;;;;;;345886;28;63667;-67
2021/05/23 01:21:14;;;;;;;6.48;1.44;;;;;;;;;;347706;28;1077;-67
2021/05/23 01:21:28;;;;;;;7.15;1.67;;;;;;;;;;348135;28;1164;-69
2021/05/23 01:21:45;;;;;;;6.55;1.75;;;;;;;;;;344672;28;63720;-69
2021/05/23 01:22:18;;;;;;;5.10;1.45;;;;;;;;;;345185;28;40740;-71
2021/05/23 01:22:35;;;;;;;4.95;1.25;;;;;;;;;;344253;28;64338;-71
2021/05/23 01:23:23;;;;;;;4.20;1.05;;;;;;;;;;345205;28;40812;-70
2021/05/23 01:23:39;;;;;;;5.43;1.30;;;;;;;;;;339008;29;64254;-71
2021/05/23 01:23:57;;;;;;;3.90;1.17;;;;;;;;;;339176;28;64842;-71
2021/05/23 01:24:17;;;;;;;6.68;1.48;;;;;;;;;;340295;28;65000;-70
2021/05/23 01:24:39;;;;;;;6.10;1.55;;;;;;;;;;340367;28;64928;-70
2021/05/23 01:24:59;;;;;;;7.28;1.40;;;;;;;;;;340185;28;64776;-70
2021/05/23 01:25:14;;;;;;;3.45;1.17;;;;;;;;;;339509;28;64420;-71
2021/05/23 01:25:29;;;;;;;6.57;1.50;;;;;;;;;;340144;28;63557;-71
2021/05/23 01:25:49;;;;;;;6.22;1.42;;;;;;;;;;340202;28;63835;-70
2021/05/23 01:26:06;;;;;;;5.72;1.30;;;;;;;;;;340495;28;62528;-70
2021/05/23 01:26:18;;;;;;;6.43;1.30;;;;;;;;;;341339;28;40308;-71
2021/05/23 01:26:38;;;;;;;5.65;1.10;;;;;;;;;;342615;28;1351;-69
2021/05/23 01:26:53;;;;;;;3.80;1.05;;;;;;;;;;340092;28;63433;-70
2021/05/23 01:27:07;;;;;;;3.28;1.20;;;;;;;;;;341263;28;40907;-69